Glendive, MT

9:16 PM MDT on September 02, 2014 (GMT -0600)
Dawson Community | Change Station
CLOSE
Current Station
Airport
Location: Glendive,
Elevation: 2457 ft
Nearby Weather Stations

Elev 2457 ft 47.14 °N, 104.81 °W | Updated 21 minutes ago

Clear
Clear
61 °F
Feels Like 61 °F
N
6
Wind Variable Wind from ENE

Today
High -- | Low -- °F
--% Chance of Precip.
Yesterday
High -- | Low -- °F
Precip. -- in
6:19 AM 7:36 PM
First Quarter, 57% visible
Pressure 29.76 in
Visibility 10.0 miles
Clouds Clear
Dew Point 43 °F
Humidity 52%
Rainfall 0.00 in
Snow Depth Not available.
UV 0 out of 12
Pollen 8.50 out of 12
Air Quality Not available.
Flu Activity Not available.
METAR KGDV 030255Z AUTO 07005KT 10SM CLR 16/06 A2976 RMK AO1 57007

More Conditions Fewer Conditions

Pressure 29.76 in
Visibility 10.0 miles
Clouds Clear
Dew Point 43 °F
Humidity 52%
Rainfall 0.00 in
Snow Depth Not available.
UV 0 out of 12
Pollen 8.50 out of 12
Air Quality Not available.
Flu Activity Not available.
METAR KGDV 030255Z AUTO 07005KT 10SM CLR 16/06 A2976 RMK AO1 57007

More Conditions Fewer Conditions

10-Day Weather Forecast

Almanac

Astronomy

Sep. 02, 2014 Rise Set
Actual Time 6:19 AM MDT 7:36 PM MDT
Civil Twilight 5:47 AM MDT 8:07 PM MDT
Nautical Twilight 5:09 AM MDT 8:45 PM MDT
Astronomical Twilight 4:29 AM MDT 9:26 PM MDT
Moon 2:34 PM MDT (9/2) No Moon Set
Length of Visible Light 14h 20m
Length of Day
13h 17m
Tomorrow will be 3m 16s shorter.
First Quarter, 57% of the Moon is Illuminated
Today
First Quarter
Sep 8
Full
Sep 15
Last Quarter
Sep 24
New
Oct 1
First Quarter

Today's Extremes

State Highs State Lows

Community

WunderPhotos

Upload Photos

1,749,862 photos uploaded!

Nearby

Snow Depth

Station Depth Elevation
Crystal Lake 0 in 6050 ft
Cole Creek 0 in 7850 ft
Burnt Mountain 0 in 5880 ft
Spur Park 0 in 8100 ft
South Fork Shields 0 in 8100 ft

Earthquake Activity

City Distance Mag. Time & Date
No recent earthquake activity has been reported nearby.
Minimum magnitude displayed is 2.5.

Coastal Water Temperatures

Place Temperature
No Stations Reporting

Nearby Weather Stations